Time;durP1;ratioP1;P1;durP2;ratioP2;P2;SDS_P1;SDS_P2;PMS_P1;PMS_P2;Temp;Humidity;BMP_temperature;BMP_pressure;BME280_temperature;BME280_humidity;BME280_pressure;Samples;Min_cycle;Max_cycle;Signal;HPM_P1;HPM_P2
2021/11/28 00:01:54;;;;;;;31.88;18.08;;;3.10;99.90;;;;;;5058956;28;20025;-69
2021/11/28 00:04:21;;;;;;;31.88;19.67;;;3.10;99.90;;;;;;5061687;28;20107;-67
2021/11/28 00:06:59;;;;;;;36.00;18.25;;;3.00;99.90;;;;;;5062963;28;20534;-67
2021/11/28 00:14:54;;;;;;;33.58;20.73;;;3.10;99.90;;;;;;5066822;28;20112;-67
2021/11/28 00:17:20;;;;;;;39.85;19.90;;;3.10;99.90;;;;;;5056988;28;20076;-68
2021/11/28 00:19:46;;;;;;;39.15;21.75;;;3.00;99.90;;;;;;5063970;28;20480;-67
2021/11/28 00:22:11;;;;;;;36.17;20.73;;;3.00;99.90;;;;;;5062715;28;20104;-68
2021/11/28 00:24:37;;;;;;;39.08;22.02;;;3.00;99.90;;;;;;5064309;28;20123;-68
2021/11/28 00:27:04;;;;;;;38.22;22.23;;;3.00;99.90;;;;;;5062178;28;20024;-69
2021/11/28 00:29:29;;;;;;;43.22;24.23;;;3.00;99.90;;;;;;5059952;28;20063;-68
2021/11/28 00:31:56;;;;;;;40.55;21.88;;;3.00;99.90;;;;;;5062837;28;20056;-68
2021/11/28 00:34:22;;;;;;;39.78;21.80;;;2.90;99.90;;;;;;5062234;28;20108;-67
2021/11/28 00:36:48;;;;;;;38.58;24.02;;;2.90;99.90;;;;;;5064016;28;20112;-68
2021/11/28 00:39:13;;;;;;;45.75;21.75;;;2.90;99.90;;;;;;5063695;28;20063;-68
2021/11/28 00:41:39;;;;;;;43.83;25.25;;;2.90;99.90;;;;;;5059701;28;20024;-68
2021/11/28 00:44:05;;;;;;;46.20;25.45;;;2.90;99.90;;;;;;5061114;28;20644;-69
2021/11/28 00:46:32;;;;;;;45.70;23.90;;;2.90;99.90;;;;;;5062441;28;20024;-68
2021/11/28 00:48:59;;;;;;;46.40;26.02;;;2.90;99.90;;;;;;5063434;28;20400;-69
2021/11/28 00:51:35;;;;;;;47.20;23.67;;;2.90;99.90;;;;;;5064179;28;20505;-67
2021/11/28 00:54:01;;;;;;;47.25;25.27;;;2.80;99.90;;;;;;5061443;28;20468;-68
2021/11/28 00:56:26;;;;;;;41.33;23.65;;;2.80;99.90;;;;;;5058936;28;20044;-68
2021/11/28 00:58:52;;;;;;;45.85;26.70;;;2.70;99.90;;;;;;5062822;28;20020;-67
2021/11/28 01:01:18;;;;;;;41.65;23.27;;;2.70;99.90;;;;;;5061303;28;20475;-67
2021/11/28 01:03:44;;;;;;;44.45;25.23;;;2.70;99.90;;;;;;5064289;28;20027;-68
2021/11/28 01:06:10;;;;;;;42.95;24.63;;;2.70;99.90;;;;;;5062193;28;20032;-68
2021/11/28 01:08:35;;;;;;;47.28;24.13;;;2.70;99.90;;;;;;5059338;28;20032;-68
2021/11/28 01:11:01;;;;;;;43.38;24.00;;;2.70;99.90;;;;;;5061519;28;20025;-67
2021/11/28 01:13:27;;;;;;;45.70;25.08;;;2.70;99.90;;;;;;5061464;28;20066;-68
2021/11/28 01:15:52;;;;;;;42.88;24.23;;;2.70;99.90;;;;;;5064165;28;20079;-67
2021/11/28 01:18:18;;;;;;;46.67;23.92;;;2.70;99.90;;;;;;5063440;28;20391;-67
2021/11/28 01:20:44;;;;;;;46.47;23.80;;;2.70;99.90;;;;;;5058865;28;20035;-67
2021/11/28 01:23:09;;;;;;;45.15;24.10;;;2.70;99.90;;;;;;5060065;28;20024;-68
2021/11/28 01:25:35;;;;;;;44.58;24.63;;;2.70;99.90;;;;;;5062442;28;20392;-67
2021/11/28 01:28:00;;;;;;;40.83;23.33;;;2.70;99.90;;;;;;5067658;28;20479;-68
2021/11/28 01:30:26;;;;;;;41.17;23.58;;;2.60;99.90;;;;;;5072999;28;20119;-68
2021/11/28 01:32:52;;;;;;;38.22;23.05;;;2.70;99.90;;;;;;5072812;28;20090;-67
2021/11/28 01:35:18;;;;;;;38.33;22.05;;;2.70;99.90;;;;;;5072378;28;20038;-68
2021/11/28 01:37:45;;;;;;;38.30;23.05;;;2.60;99.90;;;;;;5073068;28;20394;-68
2021/11/28 01:40:14;;;;;;;36.55;20.92;;;2.60;99.90;;;;;;5073353;28;20593;-68
2021/11/28 01:42:39;;;;;;;35.47;21.70;;;2.60;99.90;;;;;;5073231;28;20531;-68
2021/11/28 01:45:09;;;;;;;40.63;22.77;;;2.60;99.90;;;;;;5072990;28;20143;-68
2021/11/28 01:47:34;;;;;;;36.50;22.15;;;2.60;99.90;;;;;;5072431;28;20130;-67
2021/11/28 01:50:00;;;;;;;36.72;21.92;;;2.60;99.90;;;;;;5073206;28;20052;-68
2021/11/28 01:52:26;;;;;;;41.53;22.08;;;2.50;99.90;;;;;;5073116;28;20032;-67
2021/11/28 01:54:51;;;;;;;43.10;21.13;;;2.50;99.90;;;;;;5072810;28;20028;-68
2021/11/28 01:57:17;;;;;;;38.38;20.83;;;2.40;99.90;;;;;;5072875;28;20100;-68
2021/11/28 01:59:43;;;;;;;35.65;20.92;;;2.40;99.90;;;;;;5072821;28;20017;-68
2021/11/28 02:02:08;;;;;;;42.70;20.60;;;2.40;99.90;;;;;;5072216;28;20112;-68
2021/11/28 02:04:35;;;;;;;38.38;20.67;;;2.40;99.90;;;;;;5072872;28;20395;-68
2021/11/28 02:07:01;;;;;;;37.17;19.27;;;2.50;99.90;;;;;;5072806;28;20079;-68
2021/11/28 02:09:27;;;;;;;41.10;21.58;;;2.50;99.90;;;;;;5072211;28;20028;-67
2021/11/28 02:11:53;;;;;;;46.47;22.30;;;2.50;99.90;;;;;;5072570;28;20055;-68
2021/11/28 02:14:18;;;;;;;39.70;20.88;;;2.50;99.90;;;;;;5074921;28;20041;-68
2021/11/28 02:16:46;;;;;;;40.55;22.88;;;2.50;99.90;;;;;;5076462;28;20475;-68
2021/11/28 02:19:12;;;;;;;35.17;19.80;;;2.60;99.90;;;;;;5076427;28;20024;-68
2021/11/28 02:21:38;;;;;;;45.75;21.30;;;2.60;99.90;;;;;;5076332;28;20027;-68
2021/11/28 02:24:04;;;;;;;45.15;20.83;;;2.60;99.90;;;;;;5075748;28;20391;-68
2021/11/28 02:26:30;;;;;;;38.90;21.95;;;2.70;99.90;;;;;;5076334;28;20032;-68
2021/11/28 02:28:57;;;;;;;37.65;21.02;;;2.70;99.90;;;;;;5076243;28;20025;-68
2021/11/28 02:31:23;;;;;;;39.03;22.00;;;2.70;99.90;;;;;;5074941;28;20021;-68
2021/11/28 02:33:49;;;;;;;40.38;21.95;;;2.60;99.90;;;;;;5076088;28;20032;-68
2021/11/28 02:36:15;;;;;;;39.13;21.42;;;2.70;99.90;;;;;;5076063;28;20082;-68
2021/11/28 02:38:41;;;;;;;36.70;22.02;;;2.70;99.90;;;;;;5075501;28;20459;-68
2021/11/28 02:41:07;;;;;;;39.30;21.40;;;2.60;99.90;;;;;;5076291;28;20074;-68
2021/11/28 02:43:33;;;;;;;38.40;21.88;;;2.60;99.90;;;;;;5076197;28;20024;-68
2021/11/28 02:46:02;;;;;;;34.10;21.77;;;2.60;99.90;;;;;;5075374;28;20152;-67
2021/11/28 02:48:28;;;;;;;42.63;22.23;;;2.60;99.90;;;;;;5075901;28;20024;-68
2021/11/28 02:50:55;;;;;;;40.25;23.42;;;2.70;99.90;;;;;;5075842;28;20035;-68
2021/11/28 02:53:21;;;;;;;39.17;22.35;;;2.70;99.90;;;;;;5075352;28;20459;-67
2021/11/28 02:55:50;;;;;;;47.20;22.52;;;2.70;99.90;;;;;;5075877;28;20107;-68
2021/11/28 02:58:19;;;;;;;43.55;24.58;;;2.70;99.90;;;;;;5075953;28;20021;-68
2021/11/28 03:00:57;;;;;;;44.25;24.10;;;2.60;99.90;;;;;;5071850;28;20020;-68
2021/11/28 03:03:23;;;;;;;47.58;25.58;;;2.50;99.90;;;;;;5064293;28;20078;-68
2021/11/28 03:05:48;;;;;;;38.47;22.63;;;2.60;99.90;;;;;;5075278;28;20028;-67
2021/11/28 03:08:17;;;;;;;37.53;22.08;;;2.50;99.90;;;;;;5075785;28;20029;-68
2021/11/28 03:10:46;;;;;;;49.13;23.52;;;2.50;99.90;;;;;;5075442;28;20020;-68
2021/11/28 03:13:21;;;;;;;39.08;22.38;;;2.40;99.90;;;;;;5075236;28;20169;-68
2021/11/28 03:15:49;;;;;;;39.30;22.45;;;2.30;99.90;;;;;;5074779;28;20125;-68
2021/11/28 03:18:17;;;;;;;44.53;20.67;;;2.30;99.90;;;;;;5075302;28;20052;-68
2021/11/28 03:20:42;;;;;;;35.72;22.70;;;2.20;99.90;;;;;;5075239;28;20520;-68
2021/11/28 03:23:10;;;;;;;37.58;22.77;;;2.10;99.90;;;;;;5075452;28;20100;-68
2021/11/28 03:25:36;;;;;;;40.53;23.20;;;2.10;99.90;;;;;;5074169;28;20108;-67
2021/11/28 03:28:01;;;;;;;41.13;23.35;;;2.10;99.90;;;;;;5075133;28;20545;-68
2021/11/28 03:30:27;;;;;;;42.60;23.25;;;2.10;99.90;;;;;;5075317;28;20059;-68
2021/11/28 03:32:52;;;;;;;40.72;22.70;;;2.00;99.90;;;;;;5074948;28;20028;-68
2021/11/28 03:35:18;;;;;;;45.05;24.00;;;2.00;99.90;;;;;;5074656;28;20033;-68
2021/11/28 03:37:44;;;;;;;40.67;25.65;;;2.00;99.90;;;;;;5074899;28;20387;-68
2021/11/28 03:40:11;;;;;;;47.03;24.15;;;1.90;99.90;;;;;;5074895;28;20487;-68
2021/11/28 03:42:37;;;;;;;51.42;24.73;;;1.90;99.90;;;;;;5074764;28;20028;-68
2021/11/28 03:45:09;;;;;;;50.67;25.48;;;1.90;99.90;;;;;;5074637;28;20032;-68
2021/11/28 03:47:35;;;;;;;52.60;25.38;;;1.90;99.90;;;;;;5075010;28;20025;-68
2021/11/28 03:50:01;;;;;;;46.75;24.98;;;1.90;99.90;;;;;;5073974;28;20054;-68
2021/11/28 03:52:26;;;;;;;46.35;26.10;;;2.00;99.90;;;;;;5074792;28;20515;-68
2021/11/28 03:54:52;;;;;;;53.42;26.08;;;2.10;99.90;;;;;;5074789;28;20043;-68
2021/11/28 03:57:17;;;;;;;46.78;24.02;;;2.00;99.90;;;;;;5074333;28;20016;-67
2021/11/28 03:59:43;;;;;;;42.78;24.77;;;2.00;99.90;;;;;;5074025;28;20033;-68
2021/11/28 04:02:09;;;;;;;50.83;26.27;;;2.00;99.90;;;;;;5074350;28;20020;-68
2021/11/28 04:04:34;;;;;;;45.70;26.50;;;2.00;99.90;;;;;;5074689;28;20439;-67
2021/11/28 04:07:00;;;;;;;45.30;25.33;;;2.00;99.90;;;;;;5074596;28;20036;-68
2021/11/28 04:09:25;;;;;;;54.85;25.50;;;2.10;99.90;;;;;;5073816;28;20020;-68
2021/11/28 04:11:51;;;;;;;41.67;23.05;;;2.00;99.90;;;;;;5074123;28;20024;-68
2021/11/28 04:14:18;;;;;;;43.03;22.95;;;2.00;99.90;;;;;;5074105;28;20035;-68
2021/11/28 04:16:43;;;;;;;42.30;23.02;;;2.10;99.90;;;;;;5073553;28;20025;-67
2021/11/28 04:19:09;;;;;;;44.92;24.55;;;2.00;99.90;;;;;;5074083;28;20028;-68
2021/11/28 04:21:35;;;;;;;42.50;22.75;;;2.00;99.90;;;;;;5074131;28;20037;-68
2021/11/28 04:24:00;;;;;;;41.03;22.83;;;2.00;99.90;;;;;;5073974;28;20036;-68
2021/11/28 04:26:26;;;;;;;41.42;22.58;;;2.10;99.90;;;;;;5073413;28;20086;-68
2021/11/28 04:28:51;;;;;;;42.33;21.38;;;2.10;99.90;;;;;;5073698;28;20032;-68
2021/11/28 04:31:17;;;;;;;38.83;21.55;;;2.00;99.90;;;;;;5073861;28;20446;-68
2021/11/28 04:33:42;;;;;;;33.95;20.77;;;2.00;99.90;;;;;;5073980;28;20029;-68
2021/11/28 04:36:08;;;;;;;35.45;21.83;;;2.00;99.90;;;;;;5072479;28;20029;-68
2021/11/28 04:38:34;;;;;;;43.50;21.98;;;2.00;99.90;;;;;;5073699;28;20028;-68
2021/11/28 04:40:59;;;;;;;33.55;20.08;;;2.00;99.90;;;;;;5072530;28;20507;-68
2021/11/28 04:43:25;;;;;;;35.95;21.08;;;2.00;99.90;;;;;;5073266;28;20379;-67
2021/11/28 04:45:51;;;;;;;36.67;21.30;;;2.00;99.90;;;;;;5073607;28;20064;-68
2021/11/28 04:48:16;;;;;;;37.13;20.30;;;2.00;99.90;;;;;;5073572;28;20025;-68
2021/11/28 04:50:43;;;;;;;32.28;19.05;;;2.00;99.90;;;;;;5073799;28;20025;-68
2021/11/28 04:53:09;;;;;;;33.47;19.55;;;2.00;99.90;;;;;;5073666;28;20035;-68
2021/11/28 04:55:35;;;;;;;34.10;19.58;;;2.00;99.90;;;;;;5073190;28;20393;-67
2021/11/28 04:58:02;;;;;;;34.88;20.23;;;2.00;99.90;;;;;;5073585;28;20017;-68
2021/11/28 05:00:28;;;;;;;39.40;21.45;;;2.00;99.90;;;;;;5073438;28;20059;-68
2021/11/28 05:02:56;;;;;;;36.17;19.77;;;2.00;99.90;;;;;;5073306;28;20138;-68
2021/11/28 05:05:25;;;;;;;39.38;21.52;;;2.00;99.90;;;;;;5073399;28;20479;-68
2021/11/28 05:07:52;;;;;;;38.28;21.27;;;1.90;99.90;;;;;;5073273;28;20040;-68
2021/11/28 05:10:18;;;;;;;40.97;23.20;;;1.90;99.90;;;;;;5072798;28;20517;-68
2021/11/28 05:12:44;;;;;;;42.08;21.13;;;2.00;99.90;;;;;;5080928;23;20523;-68
2021/11/28 05:15:11;;;;;;;41.97;20.83;;;2.00;99.90;;;;;;5093687;28;20033;-68
2021/11/28 05:17:36;;;;;;;38.05;22.17;;;2.00;99.90;;;;;;5093435;28;20058;-67
2021/11/28 05:20:04;;;;;;;38.83;19.67;;;2.00;99.90;;;;;;5093357;28;20387;-68
2021/11/28 05:22:29;;;;;;;41.95;20.50;;;2.00;99.90;;;;;;5093538;28;20467;-67
2021/11/28 05:24:55;;;;;;;35.38;19.55;;;1.90;99.90;;;;;;5093612;28;20043;-67
2021/11/28 05:27:21;;;;;;;35.38;20.63;;;2.00;99.90;;;;;;5093056;28;20024;-67
2021/11/28 05:29:47;;;;;;;37.17;19.05;;;1.90;99.90;;;;;;5093479;28;20433;-67
2021/11/28 05:32:13;;;;;;;39.10;21.30;;;1.90;99.90;;;;;;5093204;28;20102;-67
2021/11/28 05:34:39;;;;;;;57.00;21.65;;;1.80;99.90;;;;;;5093110;28;20031;-67
2021/11/28 05:37:04;;;;;;;36.60;21.10;;;1.80;99.90;;;;;;5092494;28;20028;-67
2021/11/28 05:39:30;;;;;;;55.63;22.27;;;1.80;99.90;;;;;;5093214;28;20020;-67
2021/11/28 05:41:58;;;;;;;82.35;22.58;;;1.80;99.90;;;;;;5093221;28;20471;-67
2021/11/28 05:44:24;;;;;;;64.63;21.30;;;1.80;99.90;;;;;;5092561;28;20016;-67
2021/11/28 05:46:49;;;;;;;65.10;21.23;;;1.80;99.90;;;;;;5093250;28;20043;-68
2021/11/28 05:49:15;;;;;;;37.13;19.65;;;1.80;99.90;;;;;;5098650;28;20031;-67
2021/11/28 05:51:41;;;;;;;47.55;20.60;;;1.80;99.90;;;;;;5099079;28;20027;-67
2021/11/28 05:54:07;;;;;;;40.17;21.42;;;1.80;99.90;;;;;;5097918;28;20024;-68
2021/11/28 05:56:32;;;;;;;49.47;21.17;;;1.70;99.90;;;;;;5096747;28;20391;-68
2021/11/28 05:58:58;;;;;;;50.33;19.15;;;1.70;99.90;;;;;;5097053;28;20021;-68
2021/11/28 06:01:24;;;;;;;39.58;18.85;;;1.80;99.90;;;;;;5097223;28;20024;-67
2021/11/28 06:03:49;;;;;;;37.03;19.45;;;1.70;99.90;;;;;;5096956;28;20026;-67
2021/11/28 06:06:15;;;;;;;37.60;19.83;;;1.70;99.90;;;;;;5096413;28;20024;-67
2021/11/28 06:08:41;;;;;;;38.20;19.40;;;1.70;99.90;;;;;;5097227;28;20028;-68
2021/11/28 06:11:08;;;;;;;35.10;19.35;;;1.70;99.90;;;;;;5095625;28;20028;-68
2021/11/28 06:13:34;;;;;;;46.10;19.23;;;1.80;99.90;;;;;;5096567;28;20047;-67
2021/11/28 06:15:59;;;;;;;42.53;19.98;;;1.80;99.90;;;;;;5096714;28;20028;-67
2021/11/28 06:18:25;;;;;;;59.25;20.55;;;1.80;99.90;;;;;;5096226;28;20035;-68
2021/11/28 06:20:50;;;;;;;83.78;21.73;;;1.80;99.90;;;;;;5096896;28;20545;-67
2021/11/28 06:23:16;;;;;;;56.80;22.52;;;1.80;99.90;;;;;;5096749;28;20116;-68
2021/11/28 06:25:42;;;;;;;74.32;21.10;;;1.70;99.90;;;;;;5096054;28;20028;-67
2021/11/28 06:28:08;;;;;;;75.28;22.05;;;1.80;99.90;;;;;;5096522;28;20035;-67
2021/11/28 06:30:34;;;;;;;57.33;22.40;;;1.80;99.90;;;;;;5096656;28;20032;-68
2021/11/28 06:33:00;;;;;;;58.88;21.38;;;1.80;99.90;;;;;;5096387;28;20028;-68
2021/11/28 06:35:26;;;;;;;55.90;20.48;;;1.80;99.90;;;;;;5097048;28;20206;-68
2021/11/28 06:37:52;;;;;;;46.20;21.10;;;1.80;99.90;;;;;;5096337;28;20035;-68
2021/11/28 06:40:17;;;;;;;42.97;21.70;;;1.80;99.90;;;;;;5096034;28;20020;-68
2021/11/28 06:42:43;;;;;;;54.78;21.95;;;1.80;99.90;;;;;;5096183;28;20023;-67
2021/11/28 06:45:11;;;;;;;67.38;21.33;;;1.70;99.90;;;;;;5096191;28;20078;-68
2021/11/28 06:47:36;;;;;;;66.68;21.27;;;1.70;99.90;;;;;;5096178;28;20054;-67
2021/11/28 06:50:03;;;;;;;62.20;20.73;;;1.70;99.90;;;;;;5096143;28;20060;-68
2021/11/28 06:52:28;;;;;;;100.55;23.23;;;1.70;99.90;;;;;;5095524;28;20428;-67
2021/11/28 06:54:54;;;;;;;60.15;19.73;;;1.70;99.90;;;;;;5096097;28;20028;-68
2021/11/28 06:57:19;;;;;;;57.60;19.10;;;1.70;99.90;;;;;;5096025;28;20024;-68
2021/11/28 06:59:45;;;;;;;98.88;21.23;;;1.70;99.90;;;;;;5095367;28;20360;-68
2021/11/28 07:02:10;;;;;;;47.50;18.77;;;1.70;99.90;;;;;;5095451;28;20021;-68
2021/11/28 07:04:36;;;;;;;70.80;18.73;;;1.60;99.90;;;;;;5095792;28;20017;-68
2021/11/28 07:07:02;;;;;;;51.95;18.35;;;1.60;99.90;;;;;;5095824;28;20016;-68
2021/11/28 07:09:27;;;;;;;83.97;19.88;;;1.60;99.90;;;;;;5095745;28;20102;-67
2021/11/28 07:11:53;;;;;;;62.28;20.15;;;1.60;99.90;;;;;;5094471;28;20016;-69
2021/11/28 07:14:19;;;;;;;95.65;20.50;;;1.60;99.90;;;;;;5094848;28;20024;-69
2021/11/28 07:16:45;;;;;;;84.93;19.00;;;1.60;99.90;;;;;;5095765;28;20039;-69
2021/11/28 07:19:10;;;;;;;66.50;16.98;;;1.60;99.90;;;;;;5095573;28;20032;-69
2021/11/28 07:21:37;;;;;;;82.85;30.20;;;1.60;99.90;;;;;;5095508;28;20028;-68
2021/11/28 07:24:03;;;;;;;149.70;31.58;;;1.60;99.90;;;;;;5095663;28;20070;-69
2021/11/28 07:26:28;;;;;;;165.38;33.95;;;1.50;99.90;;;;;;5095432;28;20028;-68
2021/11/28 07:28:54;;;;;;;172.00;63.83;;;1.40;99.90;;;;;;5094833;28;20074;-68
2021/11/28 07:31:20;;;;;;;171.73;30.30;;;1.40;99.90;;;;;;5095319;28;20030;-69
2021/11/28 07:33:46;;;;;;;115.20;30.95;;;1.40;99.90;;;;;;5095234;28;20096;-68
2021/11/28 07:36:12;;;;;;;92.65;29.30;;;1.40;99.90;;;;;;5095183;28;20531;-69
2021/11/28 07:38:38;;;;;;;70.75;27.13;;;1.30;99.90;;;;;;5095226;28;20376;-69
2021/11/28 07:41:04;;;;;;;147.75;49.15;;;1.40;99.90;;;;;;5093311;28;20024;-69
2021/11/28 07:43:30;;;;;;;123.13;33.75;;;1.40;99.90;;;;;;5095054;28;20066;-69
2021/11/28 07:45:56;;;;;;;83.72;27.20;;;1.40;99.90;;;;;;5095084;28;20125;-69
2021/11/28 07:48:22;;;;;;;91.43;20.80;;;1.40;99.90;;;;;;5094995;28;20109;-69
2021/11/28 07:50:48;;;;;;;153.48;26.90;;;1.40;99.90;;;;;;5093725;28;20157;-68
2021/11/28 07:53:14;;;;;;;55.83;18.75;;;1.50;99.90;;;;;;5094359;28;20058;-68
2021/11/28 07:55:40;;;;;;;81.95;38.22;;;1.50;99.90;;;;;;5095075;28;20028;-69
2021/11/28 07:58:06;;;;;;;42.83;16.48;;;1.40;99.90;;;;;;5095106;28;20218;-69
2021/11/28 08:00:32;;;;;;;79.80;36.15;;;1.40;99.90;;;;;;5094482;28;20133;-68
2021/11/28 08:02:58;;;;;;;90.18;24.38;;;1.40;99.90;;;;;;5094809;28;20567;-69
2021/11/28 08:05:24;;;;;;;256.17;60.97;;;1.40;99.90;;;;;;5093412;28;20028;-69
2021/11/28 08:07:50;;;;;;;73.30;27.17;;;1.40;99.90;;;;;;5094618;28;20529;-68
2021/11/28 08:10:15;;;;;;;142.55;33.33;;;1.40;99.90;;;;;;5094238;28;20117;-69
2021/11/28 08:12:41;;;;;;;73.45;21.58;;;1.40;99.90;;;;;;5094524;28;20031;-69
2021/11/28 08:15:10;;;;;;;158.50;36.72;;;1.40;99.90;;;;;;5094743;28;20518;-68
2021/11/28 08:17:38;;;;;;;104.50;40.00;;;1.40;99.90;;;;;;5094558;28;20024;-69
2021/11/28 08:20:08;;;;;;;67.18;20.52;;;1.40;99.90;;;;;;5094380;28;20013;-69
2021/11/28 08:22:33;;;;;;;95.88;27.77;;;1.50;99.90;;;;;;5093703;28;20028;-68
2021/11/28 08:24:59;;;;;;;113.40;20.40;;;1.50;99.90;;;;;;5094283;28;20398;-68
2021/11/28 08:27:25;;;;;;;65.95;19.05;;;1.40;99.90;;;;;;5094277;28;20035;-69
2021/11/28 08:29:52;;;;;;;63.05;17.45;;;1.40;99.90;;;;;;5094182;28;20020;-69
2021/11/28 08:32:17;;;;;;;111.35;34.20;;;1.50;99.90;;;;;;5094342;28;20032;-69
2021/11/28 08:34:43;;;;;;;56.97;18.15;;;1.50;99.90;;;;;;5093589;28;20372;-69
2021/11/28 08:37:09;;;;;;;145.25;26.90;;;1.50;99.90;;;;;;5094073;28;20066;-69
2021/11/28 08:39:35;;;;;;;61.15;15.32;;;1.50;99.90;;;;;;5094012;28;20024;-68
2021/11/28 08:42:03;;;;;;;76.72;17.40;;;1.50;99.90;;;;;;5093460;28;20031;-69
2021/11/28 08:44:30;;;;;;;65.13;17.90;;;1.40;99.90;;;;;;5093940;28;20069;-69
2021/11/28 08:46:56;;;;;;;74.78;18.05;;;1.40;99.90;;;;;;5094155;28;20028;-69
2021/11/28 08:49:21;;;;;;;69.57;16.55;;;1.40;99.90;;;;;;5094464;28;20027;-69
2021/11/28 08:51:47;;;;;;;88.28;23.65;;;1.40;99.90;;;;;;5093523;28;20127;-68
2021/11/28 08:54:13;;;;;;;92.35;18.67;;;1.40;99.90;;;;;;5092474;28;20024;-69
2021/11/28 08:56:43;;;;;;;68.50;15.90;;;1.40;99.90;;;;;;5093896;28;20032;-68
2021/11/28 08:59:10;;;;;;;77.38;18.90;;;1.50;99.90;;;;;;5093695;28;20023;-68
2021/11/28 09:01:37;;;;;;;91.53;18.17;;;1.50;99.90;;;;;;5093933;28;20024;-69
2021/11/28 09:04:05;;;;;;;84.15;17.48;;;1.40;99.90;;;;;;5093082;28;20471;-68
2021/11/28 09:06:30;;;;;;;52.67;15.88;;;1.50;99.90;;;;;;5093586;28;20024;-69
2021/11/28 09:08:56;;;;;;;46.08;14.25;;;1.40;99.90;;;;;;5093596;28;20070;-68
2021/11/28 09:11:21;;;;;;;73.93;29.02;;;1.40;99.90;;;;;;5093555;28;20020;-69
2021/11/28 09:13:47;;;;;;;27.80;13.52;;;1.40;99.90;;;;;;5092835;28;20531;-68
2021/11/28 09:16:13;;;;;;;56.20;14.57;;;1.40;99.90;;;;;;5093424;28;20538;-69
2021/11/28 09:18:53;;;;;;;49.13;16.65;;;1.40;99.90;;;;;;5093727;28;20026;-69
2021/11/28 09:21:18;;;;;;;32.28;14.70;;;1.40;99.90;;;;;;5093733;28;20146;-69
2021/11/28 09:26:30;;;;;;;64.93;15.82;;;1.50;99.90;;;;;;5093316;28;20145;-69
2021/11/28 09:29:00;;;;;;;66.25;20.98;;;1.50;99.90;;;;;;5093584;28;20023;-69
2021/11/28 09:31:25;;;;;;;41.00;15.25;;;1.50;99.90;;;;;;5093323;28;20024;-69
2021/11/28 09:33:51;;;;;;;39.25;16.20;;;1.50;99.90;;;;;;5093480;28;20030;-69
2021/11/28 09:36:17;;;;;;;53.65;20.67;;;1.50;99.90;;;;;;5093191;28;20101;-69
2021/11/28 09:38:43;;;;;;;39.33;15.73;;;1.60;99.90;;;;;;5093277;28;20051;-69
2021/11/28 09:41:11;;;;;;;61.30;11.27;;;1.60;99.90;;;;;;5092686;28;20020;-69
2021/11/28 09:43:41;;;;;;;85.75;11.30;;;1.60;99.90;;;;;;5093405;28;20048;-69
2021/11/28 09:46:08;;;;;;;37.40;10.68;;;1.60;99.90;;;;;;5093185;28;20024;-69
2021/11/28 09:48:35;;;;;;;22.58;11.98;;;1.60;99.90;;;;;;5093447;28;20028;-69
2021/11/28 09:51:03;;;;;;;52.67;14.30;;;1.50;99.90;;;;;;5092604;28;20428;-68
2021/11/28 09:53:30;;;;;;;66.05;18.92;;;1.50;99.90;;;;;;5093251;28;20024;-69
2021/11/28 09:55:56;;;;;;;51.78;14.30;;;1.50;99.90;;;;;;5093026;28;20024;-69
2021/11/28 09:58:22;;;;;;;80.22;17.05;;;1.60;99.90;;;;;;5093071;28;20368;-69
2021/11/28 10:00:47;;;;;;;36.90;11.88;;;1.50;99.90;;;;;;5092496;28;20064;-69
2021/11/28 10:03:13;;;;;;;26.50;11.95;;;1.60;99.90;;;;;;5092968;28;20027;-68
2021/11/28 10:05:39;;;;;;;57.97;11.60;;;1.80;99.90;;;;;;5093516;28;20021;-68
2021/11/28 10:08:05;;;;;;;62.28;12.82;;;1.90;99.90;;;;;;5092958;28;20077;-68
2021/11/28 10:10:31;;;;;;;99.47;16.50;;;1.80;99.90;;;;;;5092691;28;20043;-68
2021/11/28 10:12:56;;;;;;;29.92;13.40;;;1.80;99.90;;;;;;5092963;28;20039;-68
2021/11/28 10:15:25;;;;;;;86.78;16.92;;;1.70;99.90;;;;;;5093171;28;20057;-68
2021/11/28 10:17:51;;;;;;;94.93;15.60;;;1.80;99.90;;;;;;5093160;28;20036;-68
2021/11/28 10:20:20;;;;;;;29.17;11.38;;;1.80;99.90;;;;;;5092321;28;20020;-68
2021/11/28 10:22:46;;;;;;;37.60;15.02;;;1.90;99.90;;;;;;5092780;28;20448;-68
2021/11/28 10:25:28;;;;;;;114.60;13.45;;;2.00;99.90;;;;;;5093055;28;20050;-68
2021/11/28 10:28:04;;;;;;;84.80;15.73;;;2.00;99.90;;;;;;5093095;28;20060;-69
2021/11/28 10:30:29;;;;;;;78.03;13.45;;;1.90;99.90;;;;;;5092272;28;20028;-68
2021/11/28 10:33:03;;;;;;;67.47;13.15;;;1.90;99.90;;;;;;5077925;28;20044;-68
2021/11/28 10:35:28;;;;;;;22.08;10.10;;;1.90;99.90;;;;;;5091704;28;20060;-68
2021/11/28 10:37:54;;;;;;;148.27;16.67;;;1.80;99.90;;;;;;5085800;28;20067;-68
2021/11/28 10:40:29;;;;;;;150.52;13.25;;;1.70;99.90;;;;;;5075556;28;20501;-68
2021/11/28 10:43:16;;;;;;;77.07;13.05;;;1.70;99.90;;;;;;5075993;28;20071;-68
2021/11/28 10:45:49;;;;;;;83.20;13.73;;;1.70;99.90;;;;;;5076262;28;20074;-69
2021/11/28 10:48:25;;;;;;;;;;;1.70;99.90;;;;;;5076640;28;20089;-68
2021/11/28 10:50:52;;;;;;;32.03;11.48;;;1.70;99.90;;;;;;5075513;28;19904;-68
2021/11/28 10:53:20;;;;;;;81.88;15.25;;;1.80;99.90;;;;;;5075775;28;20021;-68
2021/11/28 10:55:55;;;;;;;224.57;15.30;;;1.80;99.90;;;;;;5075778;28;20111;-68
2021/11/28 10:58:30;;;;;;;124.07;11.88;;;1.80;99.90;;;;;;5075852;28;20016;-68
2021/11/28 11:01:08;;;;;;;139.20;45.60;;;1.70;99.90;;;;;;5075218;28;20094;-68
2021/11/28 11:03:37;;;;;;;52.35;15.32;;;1.70;99.90;;;;;;5075622;28;20096;-68
2021/11/28 11:06:26;;;;;;;29.65;13.13;;;1.70;99.90;;;;;;5075609;28;20542;-68
2021/11/28 11:09:21;;;;;;;25.58;10.88;;;1.60;99.90;;;;;;5075610;28;20031;-69
2021/11/28 11:11:47;;;;;;;168.18;55.40;;;1.60;99.90;;;;;;5075250;28;20391;-68
2021/11/28 11:14:14;;;;;;;64.90;16.92;;;1.70;99.90;;;;;;5075248;28;20120;-69
2021/11/28 11:16:42;;;;;;;21.17;12.18;;;1.70;99.90;;;;;;5075249;28;20024;-68
2021/11/28 11:19:39;;;;;;;32.95;13.88;;;1.80;99.90;;;;;;5075335;28;20023;-69
2021/11/28 11:22:14;;;;;;;27.65;13.95;;;1.90;99.90;;;;;;5075647;28;20099;-69
2021/11/28 11:24:44;;;;;;;62.55;13.10;;;2.00;99.90;;;;;;5074683;28;20024;-69
2021/11/28 11:27:16;;;;;;;42.75;18.45;;;2.00;99.90;;;;;;5075210;28;20483;-69
2021/11/28 11:29:48;;;;;;;104.65;26.98;;;1.80;99.90;;;;;;5075779;28;20021;-69
2021/11/28 11:32:15;;;;;;;102.53;29.10;;;1.90;99.90;;;;;;5075414;28;20107;-69
2021/11/28 11:35:10;;;;;;;71.05;13.75;;;1.90;99.90;;;;;;5074635;28;20487;-69
2021/11/28 11:37:38;;;;;;;30.67;10.95;;;1.90;99.90;;;;;;5074320;28;20064;-69
2021/11/28 11:40:09;;;;;;;61.47;26.27;;;1.80;99.90;;;;;;5074922;28;20024;-69
2021/11/28 11:42:37;;;;;;;51.50;14.52;;;1.90;99.90;;;;;;5074599;28;20028;-69
2021/11/28 11:45:04;;;;;;;32.95;11.38;;;2.00;99.90;;;;;;5074311;28;20460;-69
2021/11/28 11:47:29;;;;;;;22.02;12.45;;;1.90;99.90;;;;;;5074725;28;20103;-69
2021/11/28 11:49:55;;;;;;;21.30;10.55;;;2.00;99.90;;;;;;5074720;28;20109;-69
2021/11/28 11:52:22;;;;;;;66.57;12.00;;;1.90;99.90;;;;;;5074172;28;20049;-69
2021/11/28 11:54:49;;;;;;;86.22;14.25;;;1.90;99.90;;;;;;5074472;28;20035;-69
2021/11/28 11:57:17;;;;;;;55.28;13.23;;;1.90;99.90;;;;;;5074622;28;20028;-69
2021/11/28 12:00:14;;;;;;;43.22;11.52;;;1.80;99.90;;;;;;5074683;28;20024;-69
2021/11/28 12:02:43;;;;;;;30.50;10.27;;;1.70;99.90;;;;;;5073981;28;20016;-70
2021/11/28 12:05:24;;;;;;;25.42;10.38;;;1.70;99.90;;;;;;5074949;28;20435;-69
2021/11/28 12:07:52;;;;;;;21.80;10.35;;;1.80;99.90;;;;;;5074406;28;20108;-69
2021/11/28 12:10:36;;;;;;;23.73;13.77;;;2.00;99.90;;;;;;5074609;28;20064;-69
2021/11/28 12:13:06;;;;;;;20.45;12.13;;;2.10;99.90;;;;;;5089749;28;20058;-69
2021/11/28 12:15:34;;;;;;;18.88;11.32;;;2.10;99.90;;;;;;5074319;28;20399;-69
2021/11/28 12:18:00;;;;;;;87.40;12.07;;;2.30;99.90;;;;;;5073881;28;20103;-69
2021/11/28 12:20:44;;;;;;;24.92;10.07;;;2.30;99.90;;;;;;5074114;28;20468;-70
2021/11/28 12:23:32;;;;;;;;;;;2.20;99.90;;;;;;5074270;28;20027;-69
2021/11/28 12:25:58;;;;;;;53.08;12.07;;;2.20;99.90;;;;;;5089512;28;20439;-69
2021/11/28 12:28:23;;;;;;;44.67;10.35;;;2.30;99.90;;;;;;5074002;28;20041;-69
2021/11/28 12:31:01;;;;;;;47.72;11.05;;;2.20;99.90;;;;;;5073973;28;20070;-69
2021/11/28 12:33:51;;;;;;;22.52;10.55;;;2.20;99.90;;;;;;5073590;28;20028;-70
2021/11/28 12:36:35;;;;;;;26.13;9.57;;;2.20;99.90;;;;;;5070839;28;20082;-69
2021/11/28 12:39:05;;;;;;;17.15;10.10;;;2.10;99.90;;;;;;5073765;28;20012;-69
2021/11/28 12:44:13;;;;;;;163.95;12.98;;;2.10;99.90;;;;;;5073069;28;20365;-70
2021/11/28 12:46:39;;;;;;;26.58;9.70;;;2.10;99.90;;;;;;5073962;28;20029;-69
2021/11/28 12:49:24;;;;;;;41.58;10.77;;;2.00;99.90;;;;;;5073641;28;20047;-69